Terminal Aerodrome Forecast
Issued by NWS Paducah, KY

Home | Current Version | Previous Version | Text Only | Print | Product List | Glossary On
Versions: 1 2 3 4 5 6 7 8 9 10 11 12 13 14 15 16 17 18 19 20 21 22 23 24 25 26 27
000
FTUS43 KPAH 171400 AAA
TAFPAH
TAF AMD
KPAH 171416Z 1714/1812 17005KT 5SM HZ OVC015
     FM171700 18005KT P6SM VCTS BKN030CB
     FM171800 21007KT P6SM BKN035
      TEMPO 1718/1722 -TSRA BKN025CB
     FM180000 23004KT P6SM BKN035
     FM180600 VRB02KT 3SM BR SCT002 BKN010=

USA.gov is the U.S. government's official web portal to all federal, state and local government web resources and services.